sensor_id;sensor_type;location;lat;lon;timestamp;temperature;humidity
22716;DHT22;11525;51.152;4.456;2024-02-14T00:02:17;10.40;99.90
22716;DHT22;11525;51.152;4.456;2024-02-14T00:04:43;10.40;99.90
22716;DHT22;11525;51.152;4.456;2024-02-14T00:07:09;10.50;99.90
22716;DHT22;11525;51.152;4.456;2024-02-14T00:09:35;10.70;99.90
22716;DHT22;11525;51.152;4.456;2024-02-14T00:12:01;10.80;99.90
22716;DHT22;11525;51.152;4.456;2024-02-14T00:14:26;10.80;99.90
22716;DHT22;11525;51.152;4.456;2024-02-14T00:16:52;10.70;99.90
22716;DHT22;11525;51.152;4.456;2024-02-14T00:19:18;10.70;99.90
22716;DHT22;11525;51.152;4.456;2024-02-14T00:21:44;10.70;99.90
22716;DHT22;11525;51.152;4.456;2024-02-14T00:24:09;10.80;99.90
22716;DHT22;11525;51.152;4.456;2024-02-14T00:26:37;10.70;99.90
22716;DHT22;11525;51.152;4.456;2024-02-14T00:29:04;10.70;99.90
22716;DHT22;11525;51.152;4.456;2024-02-14T00:31:30;10.60;99.90
22716;DHT22;11525;51.152;4.456;2024-02-14T00:33:56;10.60;99.90
22716;DHT22;11525;51.152;4.456;2024-02-14T00:36:22;10.70;99.90
22716;DHT22;11525;51.152;4.456;2024-02-14T00:38:47;10.80;99.90
22716;DHT22;11525;51.152;4.456;2024-02-14T00:41:13;10.70;99.90
22716;DHT22;11525;51.152;4.456;2024-02-14T00:43:39;10.70;99.90
22716;DHT22;11525;51.152;4.456;2024-02-14T00:46:04;10.80;99.90
22716;DHT22;11525;51.152;4.456;2024-02-14T00:48:32;10.80;99.90
22716;DHT22;11525;51.152;4.456;2024-02-14T00:50:58;10.80;99.90
22716;DHT22;11525;51.152;4.456;2024-02-14T00:53:24;10.90;99.90
22716;DHT22;11525;51.152;4.456;2024-02-14T00:55:50;10.90;99.90
22716;DHT22;11525;51.152;4.456;2024-02-14T00:58:17;11.00;99.90
22716;DHT22;11525;51.152;4.456;2024-02-14T01:00:42;10.90;99.90
22716;DHT22;11525;51.152;4.456;2024-02-14T01:03:08;11.00;99.90
22716;DHT22;11525;51.152;4.456;2024-02-14T01:05:38;11.10;99.90
22716;DHT22;11525;51.152;4.456;2024-02-14T01:08:04;11.00;99.90
22716;DHT22;11525;51.152;4.456;2024-02-14T01:10:30;11.00;99.90
22716;DHT22;11525;51.152;4.456;2024-02-14T01:12:56;11.00;99.90
22716;DHT22;11525;51.152;4.456;2024-02-14T01:15:22;10.90;99.90
22716;DHT22;11525;51.152;4.456;2024-02-14T01:17:48;10.90;99.90
22716;DHT22;11525;51.152;4.456;2024-02-14T01:20:14;10.90;99.90
22716;DHT22;11525;51.152;4.456;2024-02-14T01:22:40;10.80;99.90
22716;DHT22;11525;51.152;4.456;2024-02-14T01:25:06;10.80;99.90
22716;DHT22;11525;51.152;4.456;2024-02-14T01:27:32;10.70;99.90
22716;DHT22;11525;51.152;4.456;2024-02-14T01:29:59;10.70;99.90
22716;DHT22;11525;51.152;4.456;2024-02-14T01:32:24;10.60;99.90
22716;DHT22;11525;51.152;4.456;2024-02-14T01:34:51;10.50;99.90
22716;DHT22;11525;51.152;4.456;2024-02-14T01:37:17;10.60;99.90
22716;DHT22;11525;51.152;4.456;2024-02-14T01:39:43;10.50;99.90
22716;DHT22;11525;51.152;4.456;2024-02-14T01:42:09;10.50;99.90
22716;DHT22;11525;51.152;4.456;2024-02-14T01:44:34;10.50;99.90
22716;DHT22;11525;51.152;4.456;2024-02-14T01:47:02;10.50;99.90
22716;DHT22;11525;51.152;4.456;2024-02-14T01:49:28;10.60;99.90
22716;DHT22;11525;51.152;4.456;2024-02-14T01:51:55;10.60;99.90
22716;DHT22;11525;51.152;4.456;2024-02-14T01:54:24;10.60;99.90
22716;DHT22;11525;51.152;4.456;2024-02-14T01:56:51;10.70;99.90
22716;DHT22;11525;51.152;4.456;2024-02-14T01:59:17;10.90;99.90
22716;DHT22;11525;51.152;4.456;2024-02-14T02:01:43;11.00;99.90
22716;DHT22;11525;51.152;4.456;2024-02-14T02:04:09;10.90;99.90
22716;DHT22;11525;51.152;4.456;2024-02-14T02:06:36;10.90;99.90
22716;DHT22;11525;51.152;4.456;2024-02-14T02:09:02;11.00;99.90
22716;DHT22;11525;51.152;4.456;2024-02-14T02:11:28;10.80;99.90
22716;DHT22;11525;51.152;4.456;2024-02-14T02:13:55;10.70;99.90
22716;DHT22;11525;51.152;4.456;2024-02-14T02:16:21;10.70;99.90
22716;DHT22;11525;51.152;4.456;2024-02-14T02:18:47;10.70;99.90
22716;DHT22;11525;51.152;4.456;2024-02-14T02:21:14;10.80;99.90
22716;DHT22;11525;51.152;4.456;2024-02-14T02:23:40;10.80;99.90
22716;DHT22;11525;51.152;4.456;2024-02-14T02:26:10;10.90;99.90
22716;DHT22;11525;51.152;4.456;2024-02-14T02:28:36;11.10;99.90
22716;DHT22;11525;51.152;4.456;2024-02-14T02:31:05;11.20;99.90
22716;DHT22;11525;51.152;4.456;2024-02-14T02:33:31;11.00;99.90
22716;DHT22;11525;51.152;4.456;2024-02-14T02:35:56;11.00;99.90
22716;DHT22;11525;51.152;4.456;2024-02-14T02:38:23;11.00;99.90
22716;DHT22;11525;51.152;4.456;2024-02-14T02:40:49;11.00;99.90
22716;DHT22;11525;51.152;4.456;2024-02-14T02:43:14;11.20;99.90
22716;DHT22;11525;51.152;4.456;2024-02-14T02:45:40;11.20;99.90
22716;DHT22;11525;51.152;4.456;2024-02-14T02:48:07;11.10;99.90
22716;DHT22;11525;51.152;4.456;2024-02-14T02:50:33;11.20;99.90
22716;DHT22;11525;51.152;4.456;2024-02-14T02:52:59;11.30;99.90
22716;DHT22;11525;51.152;4.456;2024-02-14T02:55:25;11.40;99.90
22716;DHT22;11525;51.152;4.456;2024-02-14T02:57:52;11.20;99.90
22716;DHT22;11525;51.152;4.456;2024-02-14T03:00:18;11.30;99.90
22716;DHT22;11525;51.152;4.456;2024-02-14T03:02:46;11.30;99.90
22716;DHT22;11525;51.152;4.456;2024-02-14T03:05:12;11.10;99.90
22716;DHT22;11525;51.152;4.456;2024-02-14T03:07:49;10.90;99.90
22716;DHT22;11525;51.152;4.456;2024-02-14T03:10:16;11.00;99.90
22716;DHT22;11525;51.152;4.456;2024-02-14T03:12:49;11.00;99.90
22716;DHT22;11525;51.152;4.456;2024-02-14T03:15:16;10.90;99.90
22716;DHT22;11525;51.152;4.456;2024-02-14T03:17:42;11.00;99.90
22716;DHT22;11525;51.152;4.456;2024-02-14T03:20:08;11.00;99.90
22716;DHT22;11525;51.152;4.456;2024-02-14T03:22:41;11.00;99.90
22716;DHT22;11525;51.152;4.456;2024-02-14T03:25:28;10.80;99.90
22716;DHT22;11525;51.152;4.456;2024-02-14T03:27:53;10.70;99.90
22716;DHT22;11525;51.152;4.456;2024-02-14T03:30:20;10.80;99.90
22716;DHT22;11525;51.152;4.456;2024-02-14T03:32:47;10.80;99.90
22716;DHT22;11525;51.152;4.456;2024-02-14T03:35:13;10.70;99.90
22716;DHT22;11525;51.152;4.456;2024-02-14T03:37:42;10.70;99.90
22716;DHT22;11525;51.152;4.456;2024-02-14T03:40:09;10.70;99.90
22716;DHT22;11525;51.152;4.456;2024-02-14T03:42:36;10.80;99.90
22716;DHT22;11525;51.152;4.456;2024-02-14T03:45:02;10.90;99.90
22716;DHT22;11525;51.152;4.456;2024-02-14T03:47:31;11.00;99.90
22716;DHT22;11525;51.152;4.456;2024-02-14T03:49:59;11.10;99.90
22716;DHT22;11525;51.152;4.456;2024-02-14T03:52:25;11.20;99.90
22716;DHT22;11525;51.152;4.456;2024-02-14T03:54:52;11.10;99.90
22716;DHT22;11525;51.152;4.456;2024-02-14T03:57:17;11.20;99.90
22716;DHT22;11525;51.152;4.456;2024-02-14T03:59:44;11.10;99.90
22716;DHT22;11525;51.152;4.456;2024-02-14T04:02:10;11.20;99.90
22716;DHT22;11525;51.152;4.456;2024-02-14T04:04:41;11.10;99.90
22716;DHT22;11525;51.152;4.456;2024-02-14T04:07:08;11.10;99.90
22716;DHT22;11525;51.152;4.456;2024-02-14T04:09:37;11.20;99.90
22716;DHT22;11525;51.152;4.456;2024-02-14T04:12:03;11.10;99.90
22716;DHT22;11525;51.152;4.456;2024-02-14T04:14:29;10.90;99.90
22716;DHT22;11525;51.152;4.456;2024-02-14T04:16:55;10.90;99.90
22716;DHT22;11525;51.152;4.456;2024-02-14T04:19:21;10.90;99.90
22716;DHT22;11525;51.152;4.456;2024-02-14T04:21:47;11.00;99.90
22716;DHT22;11525;51.152;4.456;2024-02-14T04:24:13;11.00;99.90
22716;DHT22;11525;51.152;4.456;2024-02-14T04:26:38;10.90;99.90
22716;DHT22;11525;51.152;4.456;2024-02-14T04:29:04;11.10;99.90
22716;DHT22;11525;51.152;4.456;2024-02-14T04:31:30;11.00;99.90
22716;DHT22;11525;51.152;4.456;2024-02-14T04:33:58;11.00;99.90
22716;DHT22;11525;51.152;4.456;2024-02-14T04:36:24;10.90;99.90
22716;DHT22;11525;51.152;4.456;2024-02-14T04:38:50;10.90;99.90
22716;DHT22;11525;51.152;4.456;2024-02-14T04:41:16;10.70;99.90
22716;DHT22;11525;51.152;4.456;2024-02-14T04:43:42;10.90;99.90
22716;DHT22;11525;51.152;4.456;2024-02-14T04:46:08;10.80;99.90
22716;DHT22;11525;51.152;4.456;2024-02-14T04:48:37;10.90;99.90
22716;DHT22;11525;51.152;4.456;2024-02-14T04:51:04;10.80;99.90
22716;DHT22;11525;51.152;4.456;2024-02-14T04:53:32;10.80;99.90
22716;DHT22;11525;51.152;4.456;2024-02-14T04:55:59;10.80;99.90
22716;DHT22;11525;51.152;4.456;2024-02-14T04:58:25;11.00;99.90
22716;DHT22;11525;51.152;4.456;2024-02-14T05:00:52;11.00;99.90
22716;DHT22;11525;51.152;4.456;2024-02-14T05:03:20;11.00;99.90
22716;DHT22;11525;51.152;4.456;2024-02-14T05:05:46;11.10;99.90
22716;DHT22;11525;51.152;4.456;2024-02-14T05:08:12;11.20;99.90
22716;DHT22;11525;51.152;4.456;2024-02-14T05:10:38;11.00;99.90
22716;DHT22;11525;51.152;4.456;2024-02-14T05:13:04;11.10;99.90
22716;DHT22;11525;51.152;4.456;2024-02-14T05:15:30;11.10;99.90
22716;DHT22;11525;51.152;4.456;2024-02-14T05:17:56;11.40;99.90
22716;DHT22;11525;51.152;4.456;2024-02-14T05:20:22;11.30;99.90
22716;DHT22;11525;51.152;4.456;2024-02-14T05:22:47;11.30;99.90
22716;DHT22;11525;51.152;4.456;2024-02-14T05:25:13;11.40;99.90
22716;DHT22;11525;51.152;4.456;2024-02-14T05:27:39;11.50;99.90
22716;DHT22;11525;51.152;4.456;2024-02-14T05:30:05;11.30;99.90
22716;DHT22;11525;51.152;4.456;2024-02-14T05:32:32;11.30;99.90
22716;DHT22;11525;51.152;4.456;2024-02-14T05:34:58;11.30;99.90
22716;DHT22;11525;51.152;4.456;2024-02-14T05:37:23;11.40;99.90
22716;DHT22;11525;51.152;4.456;2024-02-14T05:39:49;11.40;99.90
22716;DHT22;11525;51.152;4.456;2024-02-14T05:42:15;11.50;99.90
22716;DHT22;11525;51.152;4.456;2024-02-14T05:44:42;11.60;99.90
22716;DHT22;11525;51.152;4.456;2024-02-14T05:47:09;11.60;99.90
22716;DHT22;11525;51.152;4.456;2024-02-14T05:49:35;11.60;99.90
22716;DHT22;11525;51.152;4.456;2024-02-14T05:52:01;11.60;99.90
22716;DHT22;11525;51.152;4.456;2024-02-14T05:54:27;11.40;99.90
22716;DHT22;11525;51.152;4.456;2024-02-14T05:56:52;11.40;99.90
22716;DHT22;11525;51.152;4.456;2024-02-14T05:59:18;11.40;99.90
22716;DHT22;11525;51.152;4.456;2024-02-14T06:01:44;11.40;99.90
22716;DHT22;11525;51.152;4.456;2024-02-14T06:04:10;11.40;99.90
22716;DHT22;11525;51.152;4.456;2024-02-14T06:06:36;11.40;99.90
22716;DHT22;11525;51.152;4.456;2024-02-14T06:09:01;11.30;99.90
22716;DHT22;11525;51.152;4.456;2024-02-14T06:11:28;11.40;99.90
22716;DHT22;11525;51.152;4.456;2024-02-14T06:13:54;11.30;99.90
22716;DHT22;11525;51.152;4.456;2024-02-14T06:16:19;11.40;99.90
22716;DHT22;11525;51.152;4.456;2024-02-14T06:18:45;11.60;99.90
22716;DHT22;11525;51.152;4.456;2024-02-14T06:21:11;11.50;99.90
22716;DHT22;11525;51.152;4.456;2024-02-14T06:23:36;11.40;99.90
22716;DHT22;11525;51.152;4.456;2024-02-14T06:26:04;11.30;99.90
22716;DHT22;11525;51.152;4.456;2024-02-14T06:28:30;11.30;99.90
22716;DHT22;11525;51.152;4.456;2024-02-14T06:30:55;11.50;99.90
22716;DHT22;11525;51.152;4.456;2024-02-14T06:33:21;11.60;99.90
22716;DHT22;11525;51.152;4.456;2024-02-14T06:35:48;11.60;99.90
22716;DHT22;11525;51.152;4.456;2024-02-14T06:38:14;11.50;99.90
22716;DHT22;11525;51.152;4.456;2024-02-14T06:40:40;11.50;99.90
22716;DHT22;11525;51.152;4.456;2024-02-14T06:43:06;11.70;99.90
22716;DHT22;11525;51.152;4.456;2024-02-14T06:45:32;11.90;99.90
22716;DHT22;11525;51.152;4.456;2024-02-14T06:47:58;11.80;99.90
22716;DHT22;11525;51.152;4.456;2024-02-14T06:50:24;11.70;99.90
22716;DHT22;11525;51.152;4.456;2024-02-14T06:52:50;11.70;99.90
22716;DHT22;11525;51.152;4.456;2024-02-14T06:55:17;11.80;99.90
22716;DHT22;11525;51.152;4.456;2024-02-14T06:57:42;11.70;99.90
22716;DHT22;11525;51.152;4.456;2024-02-14T07:00:09;11.70;99.90
22716;DHT22;11525;51.152;4.456;2024-02-14T07:02:35;11.70;99.90
22716;DHT22;11525;51.152;4.456;2024-02-14T07:05:01;11.70;99.90
22716;DHT22;11525;51.152;4.456;2024-02-14T07:07:27;11.60;99.90
22716;DHT22;11525;51.152;4.456;2024-02-14T07:09:53;11.70;99.90
22716;DHT22;11525;51.152;4.456;2024-02-14T07:12:19;11.60;99.90
22716;DHT22;11525;51.152;4.456;2024-02-14T07:14:46;11.70;99.90
22716;DHT22;11525;51.152;4.456;2024-02-14T07:17:13;11.90;99.90
22716;DHT22;11525;51.152;4.456;2024-02-14T07:19:38;11.90;99.90
22716;DHT22;11525;51.152;4.456;2024-02-14T07:22:04;11.80;99.90
22716;DHT22;11525;51.152;4.456;2024-02-14T07:24:30;11.90;99.90
22716;DHT22;11525;51.152;4.456;2024-02-14T07:26:56;11.80;99.90
22716;DHT22;11525;51.152;4.456;2024-02-14T07:29:22;11.70;99.90
22716;DHT22;11525;51.152;4.456;2024-02-14T07:31:48;11.80;99.90
22716;DHT22;11525;51.152;4.456;2024-02-14T07:34:14;11.80;99.90
22716;DHT22;11525;51.152;4.456;2024-02-14T07:36:39;11.80;99.90
22716;DHT22;11525;51.152;4.456;2024-02-14T07:39:07;12.00;99.90
22716;DHT22;11525;51.152;4.456;2024-02-14T07:41:32;12.10;99.90
22716;DHT22;11525;51.152;4.456;2024-02-14T07:43:58;12.00;99.90
22716;DHT22;11525;51.152;4.456;2024-02-14T07:46:24;11.90;99.90
22716;DHT22;11525;51.152;4.456;2024-02-14T07:48:51;12.10;99.90
22716;DHT22;11525;51.152;4.456;2024-02-14T07:51:19;12.30;99.90
22716;DHT22;11525;51.152;4.456;2024-02-14T07:53:45;12.20;99.90
22716;DHT22;11525;51.152;4.456;2024-02-14T07:56:11;12.40;99.90
22716;DHT22;11525;51.152;4.456;2024-02-14T07:58:36;12.40;99.90
22716;DHT22;11525;51.152;4.456;2024-02-14T08:01:02;12.50;99.90
22716;DHT22;11525;51.152;4.456;2024-02-14T08:03:29;12.30;99.90
22716;DHT22;11525;51.152;4.456;2024-02-14T08:05:55;12.30;99.90
22716;DHT22;11525;51.152;4.456;2024-02-14T08:08:21;12.30;99.90
22716;DHT22;11525;51.152;4.456;2024-02-14T08:10:47;12.20;99.90
22716;DHT22;11525;51.152;4.456;2024-02-14T08:13:12;12.40;99.90
22716;DHT22;11525;51.152;4.456;2024-02-14T08:15:41;12.50;99.90
22716;DHT22;11525;51.152;4.456;2024-02-14T08:18:07;12.40;99.90
22716;DHT22;11525;51.152;4.456;2024-02-14T08:20:33;12.30;99.90
22716;DHT22;11525;51.152;4.456;2024-02-14T08:22:59;12.40;99.90
22716;DHT22;11525;51.152;4.456;2024-02-14T08:25:25;12.40;99.90
22716;DHT22;11525;51.152;4.456;2024-02-14T08:27:52;12.40;99.90
22716;DHT22;11525;51.152;4.456;2024-02-14T08:30:17;12.40;99.90
22716;DHT22;11525;51.152;4.456;2024-02-14T08:32:45;12.70;99.90
22716;DHT22;11525;51.152;4.456;2024-02-14T08:35:10;12.70;99.90
22716;DHT22;11525;51.152;4.456;2024-02-14T08:37:39;12.80;99.90
22716;DHT22;11525;51.152;4.456;2024-02-14T08:40:06;12.80;99.90
22716;DHT22;11525;51.152;4.456;2024-02-14T08:42:33;12.70;99.90
22716;DHT22;11525;51.152;4.456;2024-02-14T08:44:59;12.60;99.90
22716;DHT22;11525;51.152;4.456;2024-02-14T08:47:25;12.60;99.90
22716;DHT22;11525;51.152;4.456;2024-02-14T08:49:52;12.80;99.90
22716;DHT22;11525;51.152;4.456;2024-02-14T08:52:17;13.00;99.90
22716;DHT22;11525;51.152;4.456;2024-02-14T08:54:44;13.10;99.90
22716;DHT22;11525;51.152;4.456;2024-02-14T08:57:10;13.00;99.90
22716;DHT22;11525;51.152;4.456;2024-02-14T08:59:35;13.10;99.90
22716;DHT22;11525;51.152;4.456;2024-02-14T09:02:01;13.10;99.90
22716;DHT22;11525;51.152;4.456;2024-02-14T09:04:28;13.10;99.90
22716;DHT22;11525;51.152;4.456;2024-02-14T09:06:53;13.10;99.90
22716;DHT22;11525;51.152;4.456;2024-02-14T09:09:19;13.10;99.90
22716;DHT22;11525;51.152;4.456;2024-02-14T09:11:45;13.10;99.90
22716;DHT22;11525;51.152;4.456;2024-02-14T09:14:14;13.20;99.90
22716;DHT22;11525;51.152;4.456;2024-02-14T09:16:40;13.10;99.90
22716;DHT22;11525;51.152;4.456;2024-02-14T09:19:05;13.20;99.90
22716;DHT22;11525;51.152;4.456;2024-02-14T09:21:33;13.20;99.90
22716;DHT22;11525;51.152;4.456;2024-02-14T09:24:02;13.20;99.90
22716;DHT22;11525;51.152;4.456;2024-02-14T09:26:29;13.10;99.90
22716;DHT22;11525;51.152;4.456;2024-02-14T09:28:55;13.20;99.90
22716;DHT22;11525;51.152;4.456;2024-02-14T09:31:21;13.10;99.90
22716;DHT22;11525;51.152;4.456;2024-02-14T09:33:48;13.00;99.90
22716;DHT22;11525;51.152;4.456;2024-02-14T09:36:15;13.00;99.90
22716;DHT22;11525;51.152;4.456;2024-02-14T09:38:41;13.10;99.90
22716;DHT22;11525;51.152;4.456;2024-02-14T09:41:36;13.30;99.90
22716;DHT22;11525;51.152;4.456;2024-02-14T09:44:02;13.20;99.90
22716;DHT22;11525;51.152;4.456;2024-02-14T09:46:29;13.10;99.90
22716;DHT22;11525;51.152;4.456;2024-02-14T09:48:59;13.10;99.90
22716;DHT22;11525;51.152;4.456;2024-02-14T09:51:25;13.20;99.90
22716;DHT22;11525;51.152;4.456;2024-02-14T09:53:51;13.10;99.90
22716;DHT22;11525;51.152;4.456;2024-02-14T09:56:20;13.10;99.90
22716;DHT22;11525;51.152;4.456;2024-02-14T09:58:49;13.10;99.90
22716;DHT22;11525;51.152;4.456;2024-02-14T10:01:21;13.20;99.90
22716;DHT22;11525;51.152;4.456;2024-02-14T10:03:53;13.20;99.90
22716;DHT22;11525;51.152;4.456;2024-02-14T10:06:19;13.20;99.90
22716;DHT22;11525;51.152;4.456;2024-02-14T10:08:49;13.20;99.90
22716;DHT22;11525;51.152;4.456;2024-02-14T10:11:19;13.30;99.90
22716;DHT22;11525;51.152;4.456;2024-02-14T10:13:49;13.20;99.90
22716;DHT22;11525;51.152;4.456;2024-02-14T10:16:19;13.30;99.90
22716;DHT22;11525;51.152;4.456;2024-02-14T10:18:45;13.30;99.90
22716;DHT22;11525;51.152;4.456;2024-02-14T10:21:16;13.30;99.90
22716;DHT22;11525;51.152;4.456;2024-02-14T10:23:45;13.50;99.90
22716;DHT22;11525;51.152;4.456;2024-02-14T10:26:16;13.50;99.90
22716;DHT22;11525;51.152;4.456;2024-02-14T10:28:45;13.40;99.90
22716;DHT22;11525;51.152;4.456;2024-02-14T10:31:11;13.40;99.90
22716;DHT22;11525;51.152;4.456;2024-02-14T10:33:38;13.40;99.90
22716;DHT22;11525;51.152;4.456;2024-02-14T10:36:07;13.40;99.90
22716;DHT22;11525;51.152;4.456;2024-02-14T10:38:34;13.40;99.90
22716;DHT22;11525;51.152;4.456;2024-02-14T10:41:02;13.30;99.90
22716;DHT22;11525;51.152;4.456;2024-02-14T10:43:28;13.40;99.90
22716;DHT22;11525;51.152;4.456;2024-02-14T10:45:55;13.30;99.90
22716;DHT22;11525;51.152;4.456;2024-02-14T10:48:22;13.30;99.90
22716;DHT22;11525;51.152;4.456;2024-02-14T10:50:53;13.30;99.90
22716;DHT22;11525;51.152;4.456;2024-02-14T10:53:21;13.20;99.90
22716;DHT22;11525;51.152;4.456;2024-02-14T10:55:49;13.30;99.90
22716;DHT22;11525;51.152;4.456;2024-02-14T10:58:18;13.30;99.90
22716;DHT22;11525;51.152;4.456;2024-02-14T11:00:46;13.30;99.90
22716;DHT22;11525;51.152;4.456;2024-02-14T11:03:13;13.10;99.90
22716;DHT22;11525;51.152;4.456;2024-02-14T11:05:47;13.30;99.90
22716;DHT22;11525;51.152;4.456;2024-02-14T11:08:18;13.40;99.90
22716;DHT22;11525;51.152;4.456;2024-02-14T11:10:53;13.40;99.90
22716;DHT22;11525;51.152;4.456;2024-02-14T11:13:20;13.20;99.90
22716;DHT22;11525;51.152;4.456;2024-02-14T11:15:47;13.10;99.90
22716;DHT22;11525;51.152;4.456;2024-02-14T11:18:12;13.00;99.90
22716;DHT22;11525;51.152;4.456;2024-02-14T11:20:38;13.10;99.90
22716;DHT22;11525;51.152;4.456;2024-02-14T11:23:07;13.10;99.90
22716;DHT22;11525;51.152;4.456;2024-02-14T11:25:37;13.10;99.90
22716;DHT22;11525;51.152;4.456;2024-02-14T11:28:19;13.00;99.90
22716;DHT22;11525;51.152;4.456;2024-02-14T11:30:49;12.90;99.90
22716;DHT22;11525;51.152;4.456;2024-02-14T11:33:21;12.90;99.90
22716;DHT22;11525;51.152;4.456;2024-02-14T11:35:48;13.00;99.90
22716;DHT22;11525;51.152;4.456;2024-02-14T11:38:18;13.00;99.90
22716;DHT22;11525;51.152;4.456;2024-02-14T11:40:44;12.90;99.90
22716;DHT22;11525;51.152;4.456;2024-02-14T11:43:18;13.00;99.90
22716;DHT22;11525;51.152;4.456;2024-02-14T11:45:44;13.00;99.90
22716;DHT22;11525;51.152;4.456;2024-02-14T11:48:15;13.10;99.90
22716;DHT22;11525;51.152;4.456;2024-02-14T11:50:42;13.00;99.90
22716;DHT22;11525;51.152;4.456;2024-02-14T11:53:13;13.00;99.90
22716;DHT22;11525;51.152;4.456;2024-02-14T11:55:42;13.10;99.90
22716;DHT22;11525;51.152;4.456;2024-02-14T11:58:09;13.00;99.90
22716;DHT22;11525;51.152;4.456;2024-02-14T12:00:39;12.90;99.90
22716;DHT22;11525;51.152;4.456;2024-02-14T12:03:21;13.00;99.90
22716;DHT22;11525;51.152;4.456;2024-02-14T12:05:50;13.00;99.90
22716;DHT22;11525;51.152;4.456;2024-02-14T12:08:16;13.10;99.90
22716;DHT22;11525;51.152;4.456;2024-02-14T12:10:43;13.20;99.90
22716;DHT22;11525;51.152;4.456;2024-02-14T12:13:14;13.20;99.90
22716;DHT22;11525;51.152;4.456;2024-02-14T12:15:45;13.30;99.90
22716;DHT22;11525;51.152;4.456;2024-02-14T12:18:11;13.40;99.90
22716;DHT22;11525;51.152;4.456;2024-02-14T12:20:38;13.40;99.90
22716;DHT22;11525;51.152;4.456;2024-02-14T12:23:04;13.50;99.90
22716;DHT22;11525;51.152;4.456;2024-02-14T12:25:33;13.60;99.90
22716;DHT22;11525;51.152;4.456;2024-02-14T12:27:59;13.60;99.90
22716;DHT22;11525;51.152;4.456;2024-02-14T12:30:48;13.60;99.90
22716;DHT22;11525;51.152;4.456;2024-02-14T12:33:24;13.80;99.90
22716;DHT22;11525;51.152;4.456;2024-02-14T12:35:51;13.70;99.90
22716;DHT22;11525;51.152;4.456;2024-02-14T12:38:20;13.60;99.90
22716;DHT22;11525;51.152;4.456;2024-02-14T12:40:46;13.90;99.90
22716;DHT22;11525;51.152;4.456;2024-02-14T12:43:13;13.90;99.90
22716;DHT22;11525;51.152;4.456;2024-02-14T12:45:40;13.80;99.90
22716;DHT22;11525;51.152;4.456;2024-02-14T12:48:07;13.90;99.90
22716;DHT22;11525;51.152;4.456;2024-02-14T12:50:37;14.00;99.90
22716;DHT22;11525;51.152;4.456;2024-02-14T12:53:04;14.00;99.90
22716;DHT22;11525;51.152;4.456;2024-02-14T12:55:30;14.00;99.90
22716;DHT22;11525;51.152;4.456;2024-02-14T12:57:56;13.70;99.90
22716;DHT22;11525;51.152;4.456;2024-02-14T13:00:25;13.70;99.90
22716;DHT22;11525;51.152;4.456;2024-02-14T13:02:52;13.70;99.90
22716;DHT22;11525;51.152;4.456;2024-02-14T13:05:19;13.60;99.90
22716;DHT22;11525;51.152;4.456;2024-02-14T13:07:45;13.50;99.90
22716;DHT22;11525;51.152;4.456;2024-02-14T13:10:12;13.50;99.90
22716;DHT22;11525;51.152;4.456;2024-02-14T13:12:38;13.60;99.90
22716;DHT22;11525;51.152;4.456;2024-02-14T13:15:08;13.70;99.90
22716;DHT22;11525;51.152;4.456;2024-02-14T13:17:34;13.80;99.90
22716;DHT22;11525;51.152;4.456;2024-02-14T13:20:00;13.80;99.90
22716;DHT22;11525;51.152;4.456;2024-02-14T13:22:26;13.90;99.90
22716;DHT22;11525;51.152;4.456;2024-02-14T13:24:53;13.80;99.90
22716;DHT22;11525;51.152;4.456;2024-02-14T13:27:19;13.70;99.90
22716;DHT22;11525;51.152;4.456;2024-02-14T13:29:48;14.00;99.90
22716;DHT22;11525;51.152;4.456;2024-02-14T13:32:15;14.10;99.90
22716;DHT22;11525;51.152;4.456;2024-02-14T13:34:41;14.10;99.90
22716;DHT22;11525;51.152;4.456;2024-02-14T13:37:07;14.20;99.90
22716;DHT22;11525;51.152;4.456;2024-02-14T13:39:34;14.10;99.90
22716;DHT22;11525;51.152;4.456;2024-02-14T13:42:00;14.00;99.90
22716;DHT22;11525;51.152;4.456;2024-02-14T13:44:28;13.90;99.90
22716;DHT22;11525;51.152;4.456;2024-02-14T13:46:55;14.00;99.90
22716;DHT22;11525;51.152;4.456;2024-02-14T13:49:21;14.00;99.90
22716;DHT22;11525;51.152;4.456;2024-02-14T13:51:51;14.10;99.90
22716;DHT22;11525;51.152;4.456;2024-02-14T13:54:21;14.10;99.90
22716;DHT22;11525;51.152;4.456;2024-02-14T13:56:49;14.00;99.90
22716;DHT22;11525;51.152;4.456;2024-02-14T13:59:16;14.10;99.90
22716;DHT22;11525;51.152;4.456;2024-02-14T14:01:42;14.10;99.90
22716;DHT22;11525;51.152;4.456;2024-02-14T14:04:08;14.10;99.90
22716;DHT22;11525;51.152;4.456;2024-02-14T14:06:34;14.00;99.90
22716;DHT22;11525;51.152;4.456;2024-02-14T14:09:00;14.00;99.90
22716;DHT22;11525;51.152;4.456;2024-02-14T14:11:28;14.00;99.90
22716;DHT22;11525;51.152;4.456;2024-02-14T14:13:54;13.90;99.90
22716;DHT22;11525;51.152;4.456;2024-02-14T14:16:20;13.90;99.90
22716;DHT22;11525;51.152;4.456;2024-02-14T14:18:48;13.90;99.90
22716;DHT22;11525;51.152;4.456;2024-02-14T14:21:15;13.90;99.90
22716;DHT22;11525;51.152;4.456;2024-02-14T14:23:41;13.80;99.90
22716;DHT22;11525;51.152;4.456;2024-02-14T14:26:07;13.80;99.90
22716;DHT22;11525;51.152;4.456;2024-02-14T14:28:33;13.80;99.90
22716;DHT22;11525;51.152;4.456;2024-02-14T14:30:59;13.80;99.90
22716;DHT22;11525;51.152;4.456;2024-02-14T14:33:27;13.80;99.90
22716;DHT22;11525;51.152;4.456;2024-02-14T14:35:53;13.70;99.90
22716;DHT22;11525;51.152;4.456;2024-02-14T14:38:20;13.70;99.90
22716;DHT22;11525;51.152;4.456;2024-02-14T14:40:47;13.90;99.90
22716;DHT22;11525;51.152;4.456;2024-02-14T14:43:13;13.90;99.90
22716;DHT22;11525;51.152;4.456;2024-02-14T14:45:39;14.10;99.90
22716;DHT22;11525;51.152;4.456;2024-02-14T14:48:06;14.20;99.90
22716;DHT22;11525;51.152;4.456;2024-02-14T14:50:37;14.20;99.90
22716;DHT22;11525;51.152;4.456;2024-02-14T14:53:04;14.00;99.90
22716;DHT22;11525;51.152;4.456;2024-02-14T14:55:53;14.00;99.90
22716;DHT22;11525;51.152;4.456;2024-02-14T14:58:22;14.00;99.90
22716;DHT22;11525;51.152;4.456;2024-02-14T15:00:49;13.90;99.90
22716;DHT22;11525;51.152;4.456;2024-02-14T15:03:14;14.00;99.90
22716;DHT22;11525;51.152;4.456;2024-02-14T15:05:40;14.10;99.90
22716;DHT22;11525;51.152;4.456;2024-02-14T15:08:07;14.10;99.90
22716;DHT22;11525;51.152;4.456;2024-02-14T15:10:34;14.30;99.90
22716;DHT22;11525;51.152;4.456;2024-02-14T15:13:00;14.30;99.90
22716;DHT22;11525;51.152;4.456;2024-02-14T15:15:26;14.10;99.90
22716;DHT22;11525;51.152;4.456;2024-02-14T15:17:52;14.10;99.90
22716;DHT22;11525;51.152;4.456;2024-02-14T15:20:17;14.10;99.90
22716;DHT22;11525;51.152;4.456;2024-02-14T15:22:43;14.10;99.90
22716;DHT22;11525;51.152;4.456;2024-02-14T15:25:09;14.20;99.90
22716;DHT22;11525;51.152;4.456;2024-02-14T15:27:35;14.30;99.90
22716;DHT22;11525;51.152;4.456;2024-02-14T15:30:06;14.40;99.90